Time;durP1;ratioP1;P1;durP2;ratioP2;P2;SDS_P1;SDS_P2;PMS_P1;PMS_P2;Temp;Humidity;BMP_temperature;BMP_pressure;BME280_temperature;BME280_humidity;BME280_pressure;Samples;Min_cycle;Max_cycle;Signal;HPM_P1;HPM_P2
2023/05/22 00:00:43;;;;;;;5.90;5.60;;;;;;;;;;4995870;28;20030;-29
2023/05/22 00:03:09;;;;;;;6.05;5.75;;;;;;;;;;4996047;28;20080;-30
2023/05/22 00:05:40;;;;;;;6.03;5.72;;;;;;;;;;4995392;28;20108;-27
2023/05/22 00:08:10;;;;;;;6.13;5.83;;;;;;;;;;4995529;28;20030;-30
2023/05/22 00:10:37;;;;;;;6.07;5.75;;;;;;;;;;4995763;28;20042;-30
2023/05/22 00:13:03;;;;;;;6.38;5.97;;;;;;;;;;4995298;28;20446;-30
2023/05/22 00:15:30;;;;;;;6.07;5.75;;;;;;;;;;4995727;28;20030;-30
2023/05/22 00:17:56;;;;;;;5.43;5.13;;;;;;;;;;4995666;28;20085;-31
2023/05/22 00:20:22;;;;;;;6.63;6.22;;;;;;;;;;4995629;28;20030;-31
2023/05/22 00:22:48;;;;;;;5.65;5.35;;;;;;;;;;4995464;28;20034;-27
2023/05/22 00:25:15;;;;;;;5.85;5.55;;;;;;;;;;4995220;28;20027;-32
2023/05/22 00:27:41;;;;;;;6.03;5.72;;;;;;;;;;4995289;28;20031;-30
2023/05/22 00:30:08;;;;;;;6.18;5.85;;;;;;;;;;4995494;28;20108;-27
2023/05/22 00:32:34;;;;;;;6.00;5.70;;;;;;;;;;4995400;28;20046;-32
2023/05/22 00:35:00;;;;;;;6.20;5.90;;;;;;;;;;4995164;28;20036;-28
2023/05/22 00:37:26;;;;;;;6.35;6.05;;;;;;;;;;4978048;28;20030;-30
2023/05/22 00:39:52;;;;;;;6.72;6.32;;;;;;;;;;4978262;28;20034;-30
2023/05/22 00:42:19;;;;;;;6.10;5.80;;;;;;;;;;4995326;28;20033;-31
2023/05/22 00:44:45;;;;;;;6.93;6.53;;;;;;;;;;4995054;28;20030;-29
2023/05/22 00:47:11;;;;;;;5.65;5.35;;;;;;;;;;4995384;28;20026;-29
2023/05/22 00:49:37;;;;;;;6.40;6.10;;;;;;;;;;4995323;28;20026;-27
2023/05/22 00:52:03;;;;;;;6.13;5.82;;;;;;;;;;4977909;28;20022;-30
2023/05/22 00:54:30;;;;;;;6.97;6.57;;;;;;;;;;4998985;28;20358;-28
2023/05/22 00:56:56;;;;;;;5.93;5.47;;;;;;;;;;4999000;28;20060;-27
2023/05/22 00:59:23;;;;;;;6.30;5.90;;;;;;;;;;4998906;28;20026;-31
2023/05/22 01:01:49;;;;;;;5.70;5.40;;;;;;;;;;4981688;28;20027;-27
2023/05/22 01:04:17;;;;;;;6.22;5.93;;;;;;;;;;4998503;28;20478;-26
2023/05/22 01:06:45;;;;;;;6.70;6.30;;;;;;;;;;4981681;28;20034;-31
2023/05/22 01:09:11;;;;;;;6.55;6.15;;;;;;;;;;4999026;28;20084;-31
2023/05/22 01:11:39;;;;;;;6.47;6.18;;;;;;;;;;4998798;28;20382;-30
2023/05/22 01:14:12;;;;;;;6.80;6.40;;;;;;;;;;4998656;28;20035;-31
2023/05/22 01:16:38;;;;;;;6.10;5.70;;;;;;;;;;4999189;28;20468;-30
2023/05/22 01:19:14;;;;;;;6.03;5.72;;;;;;;;;;4998830;28;20042;-30
2023/05/22 01:22:00;;;;;;;6.20;5.88;;;;;;;;;;4998518;28;20454;-29
2023/05/22 01:24:29;;;;;;;6.45;6.05;;;;;;;;;;4998438;28;20046;-26
2023/05/22 01:27:14;;;;;;;6.45;6.05;;;;;;;;;;4998508;28;20160;-29
2023/05/22 01:29:46;;;;;;;6.28;5.93;;;;;;;;;;4998683;28;20029;-31
2023/05/22 01:32:22;;;;;;;6.60;6.30;;;;;;;;;;4998323;28;20018;-30
2023/05/22 01:34:52;;;;;;;7.00;6.50;;;;;;;;;;4998650;28;20124;-30
2023/05/22 01:37:20;;;;;;;7.55;7.15;;;;;;;;;;4999022;28;20034;-30
2023/05/22 01:39:46;;;;;;;6.90;6.50;;;;;;;;;;4998151;28;20030;-31
2023/05/22 01:42:13;;;;;;;5.88;5.47;;;;;;;;;;4998326;28;20034;-29
2023/05/22 01:44:40;;;;;;;6.60;6.20;;;;;;;;;;4998335;28;20058;-29
2023/05/22 01:47:07;;;;;;;5.75;5.45;;;;;;;;;;4998351;28;20014;-30
2023/05/22 01:49:34;;;;;;;6.43;6.03;;;;;;;;;;4981431;28;20405;-29
2023/05/22 01:52:12;;;;;;;6.00;5.70;;;;;;;;;;4997956;28;20042;-31
2023/05/22 01:54:44;;;;;;;7.05;6.65;;;;;;;;;;4998233;28;20053;-31
2023/05/22 01:57:18;;;;;;;7.03;6.63;;;;;;;;;;4998182;28;20347;-30
2023/05/22 02:00:01;;;;;;;6.22;5.82;;;;;;;;;;4998160;28;20058;-29
2023/05/22 02:02:28;;;;;;;7.45;7.05;;;;;;;;;;4998621;28;20026;-31
2023/05/22 02:04:59;;;;;;;5.85;5.55;;;;;;;;;;4997196;28;20046;-31
2023/05/22 02:07:27;;;;;;;6.90;6.50;;;;;;;;;;4997713;28;20030;-30
2023/05/22 02:09:55;;;;;;;5.82;5.53;;;;;;;;;;4997961;28;20026;-30
2023/05/22 02:12:22;;;;;;;6.25;5.90;;;;;;;;;;4997817;28;20168;-30
2023/05/22 02:14:48;;;;;;;6.75;6.35;;;;;;;;;;4997577;28;20030;-29
2023/05/22 02:17:16;;;;;;;7.07;6.68;;;;;;;;;;4998363;28;20427;-29
2023/05/22 02:19:43;;;;;;;5.93;5.63;;;;;;;;;;4997453;28;20046;-30
2023/05/22 02:22:12;;;;;;;6.32;5.93;;;;;;;;;;4980402;28;20030;-29
2023/05/22 02:24:40;;;;;;;6.25;5.85;;;;;;;;;;4997630;28;20038;-30
2023/05/22 02:27:06;;;;;;;6.07;5.70;;;;;;;;;;4980200;28;20022;-28
2023/05/22 02:29:33;;;;;;;6.10;5.70;;;;;;;;;;4997298;28;20106;-31
2023/05/22 02:31:59;;;;;;;6.15;5.85;;;;;;;;;;4997257;28;20058;-32
2023/05/22 02:34:25;;;;;;;6.63;6.22;;;;;;;;;;4997464;28;20092;-27
2023/05/22 02:36:52;;;;;;;6.30;6.00;;;;;;;;;;4997231;28;20028;-30
2023/05/22 02:39:18;;;;;;;6.55;6.15;;;;;;;;;;4997158;28;20060;-29
2023/05/22 02:41:45;;;;;;;6.40;6.00;;;;;;;;;;4997016;28;20026;-26
2023/05/22 02:44:11;;;;;;;6.10;5.70;;;;;;;;;;4996897;28;20049;-28
2023/05/22 02:46:37;;;;;;;5.90;5.60;;;;;;;;;;4996977;28;20477;-27
2023/05/22 02:49:03;;;;;;;5.60;5.30;;;;;;;;;;4996921;28;20029;-30
2023/05/22 02:51:29;;;;;;;6.15;5.82;;;;;;;;;;4996898;28;20035;-30
2023/05/22 02:53:56;;;;;;;6.07;5.75;;;;;;;;;;4996959;28;20033;-28
2023/05/22 02:56:22;;;;;;;6.43;6.03;;;;;;;;;;4996808;28;20025;-30
2023/05/22 02:58:48;;;;;;;5.88;5.57;;;;;;;;;;4997022;28;20018;-34
2023/05/22 03:01:15;;;;;;;6.00;5.60;;;;;;;;;;4996710;28;20041;-28
2023/05/22 03:03:42;;;;;;;5.57;5.28;;;;;;;;;;4996518;28;20050;-29
2023/05/22 03:06:09;;;;;;;6.82;6.43;;;;;;;;;;4996915;28;20114;-27
2023/05/22 03:08:40;;;;;;;6.00;5.70;;;;;;;;;;4996796;28;20040;-27
2023/05/22 03:11:06;;;;;;;;;;;;;;;;;;4996914;28;20102;-28
2023/05/22 03:13:32;;;;;;;6.88;6.47;;;;;;;;;;4996683;28;20005;-27
2023/05/22 03:15:58;;;;;;;6.10;5.80;;;;;;;;;;4996057;28;20026;-28
2023/05/22 03:18:25;;;;;;;5.80;5.47;;;;;;;;;;4996361;28;20030;-31
2023/05/22 03:20:51;;;;;;;6.40;6.00;;;;;;;;;;4996351;28;20417;-31
2023/05/22 03:23:19;;;;;;;6.60;6.20;;;;;;;;;;4996287;28;20030;-29
2023/05/22 03:25:46;;;;;;;5.68;5.38;;;;;;;;;;4996411;28;20113;-27
2023/05/22 03:28:12;;;;;;;6.07;5.78;;;;;;;;;;4996473;28;20114;-30
2023/05/22 03:30:38;;;;;;;6.05;5.55;;;;;;;;;;4996155;28;20030;-29
2023/05/22 03:33:04;;;;;;;6.18;5.80;;;;;;;;;;4996362;28;20493;-28
2023/05/22 03:35:31;;;;;;;5.90;5.60;;;;;;;;;;4996059;28;20030;-29
2023/05/22 03:37:57;;;;;;;6.82;6.43;;;;;;;;;;4996304;28;20054;-28
2023/05/22 03:40:23;;;;;;;6.15;5.82;;;;;;;;;;4995968;28;20026;-30
2023/05/22 03:42:49;;;;;;;5.90;5.50;;;;;;;;;;4995813;28;20022;-32
2023/05/22 03:45:15;;;;;;;5.60;5.30;;;;;;;;;;4995724;28;20027;-31
2023/05/22 03:47:41;;;;;;;6.22;5.82;;;;;;;;;;4995845;28;20041;-27
2023/05/22 03:50:08;;;;;;;5.65;5.35;;;;;;;;;;4995734;28;20357;-29
2023/05/22 03:52:34;;;;;;;6.10;5.57;;;;;;;;;;4995695;28;20084;-28
2023/05/22 03:55:00;;;;;;;5.57;5.28;;;;;;;;;;4995620;28;20445;-30
2023/05/22 03:57:26;;;;;;;6.70;6.30;;;;;;;;;;4995599;28;20100;-32
2023/05/22 03:59:53;;;;;;;6.45;6.05;;;;;;;;;;4995880;28;20104;-28
2023/05/22 04:02:19;;;;;;;6.22;5.82;;;;;;;;;;4995495;28;20038;-30
2023/05/22 04:04:46;;;;;;;5.85;5.55;;;;;;;;;;4978102;28;20046;-29
2023/05/22 04:07:12;;;;;;;6.55;6.05;;;;;;;;;;4995386;28;20034;-30
2023/05/22 04:09:38;;;;;;;5.78;5.47;;;;;;;;;;4995483;28;20026;-30
2023/05/22 04:12:06;;;;;;;5.60;5.30;;;;;;;;;;4978525;28;20181;-33
2023/05/22 04:14:32;;;;;;;5.95;5.60;;;;;;;;;;4995133;28;20041;-29
2023/05/22 04:16:59;;;;;;;5.65;5.35;;;;;;;;;;4995220;28;20034;-25
2023/05/22 04:19:26;;;;;;;6.05;5.65;;;;;;;;;;4995730;28;20402;-32
2023/05/22 04:21:56;;;;;;;6.18;5.88;;;;;;;;;;4977984;28;20026;-30
2023/05/22 04:24:22;;;;;;;5.90;5.60;;;;;;;;;;4994973;28;20030;-29
2023/05/22 04:26:48;;;;;;;5.30;5.00;;;;;;;;;;4995426;28;20026;-31
2023/05/22 04:29:15;;;;;;;6.32;5.93;;;;;;;;;;4995199;28;20101;-28
2023/05/22 04:31:45;;;;;;;6.07;5.78;;;;;;;;;;4994796;28;20088;-29
2023/05/22 04:34:14;;;;;;;6.07;5.47;;;;;;;;;;4995299;28;20030;-32
2023/05/22 04:36:40;;;;;;;6.35;5.85;;;;;;;;;;4995260;28;20037;-31
2023/05/22 04:39:06;;;;;;;6.63;6.03;;;;;;;;;;4995443;28;20400;-32
2023/05/22 04:41:33;;;;;;;10.00;5.63;;;;;;;;;;4995138;28;20374;-32
2023/05/22 04:44:02;;;;;;;8.13;6.70;;;;;;;;;;4994793;28;20038;-34
2023/05/22 04:46:28;;;;;;;6.70;6.10;;;;;;;;;;4994777;28;20030;-30
2023/05/22 04:48:55;;;;;;;6.32;5.93;;;;;;;;;;4995291;28;20023;-25
2023/05/22 04:51:21;;;;;;;7.60;5.60;;;;;;;;;;4995484;28;20141;-29
2023/05/22 04:53:48;;;;;;;5.78;5.38;;;;;;;;;;4995093;28;20058;-28
2023/05/22 04:56:14;;;;;;;11.77;5.75;;;;;;;;;;4994787;28;20026;-28
2023/05/22 04:58:40;;;;;;;8.43;5.80;;;;;;;;;;4994811;28;20022;-28
2023/05/22 05:01:08;;;;;;;5.95;5.35;;;;;;;;;;4994622;28;20139;-31
2023/05/22 05:03:34;;;;;;;6.90;5.65;;;;;;;;;;4994442;28;20026;-28
2023/05/22 05:06:00;;;;;;;6.00;5.53;;;;;;;;;;4994701;28;20018;-32
2023/05/22 05:08:26;;;;;;;6.20;5.70;;;;;;;;;;4994944;28;20054;-31
2023/05/22 05:10:52;;;;;;;10.15;5.43;;;;;;;;;;4994633;28;20065;-34
2023/05/22 05:13:18;;;;;;;8.45;5.45;;;;;;;;;;4994800;28;20073;-30
2023/05/22 05:15:44;;;;;;;6.53;5.80;;;;;;;;;;4994737;28;20027;-31
2023/05/22 05:18:11;;;;;;;5.90;5.40;;;;;;;;;;4994764;28;20030;-29
2023/05/22 05:20:37;;;;;;;10.32;7.05;;;;;;;;;;4994704;28;20030;-28
2023/05/22 05:23:03;;;;;;;13.85;5.95;;;;;;;;;;4994596;28;20037;-28
2023/05/22 05:25:29;;;;;;;5.60;5.15;;;;;;;;;;4994452;28;20037;-30
2023/05/22 05:27:56;;;;;;;6.03;5.55;;;;;;;;;;4994550;28;20057;-29
2023/05/22 05:30:22;;;;;;;5.60;5.20;;;;;;;;;;4994499;28;20327;-28
2023/05/22 05:32:48;;;;;;;6.47;5.88;;;;;;;;;;4994523;28;20026;-29
2023/05/22 05:35:15;;;;;;;5.13;4.82;;;;;;;;;;4994767;28;20040;-29
2023/05/22 05:37:41;;;;;;;5.65;5.35;;;;;;;;;;4994733;28;20031;-29
2023/05/22 05:40:08;;;;;;;4.93;4.60;;;;;;;;;;4997395;28;20036;-32
2023/05/22 05:42:34;;;;;;;5.90;5.50;;;;;;;;;;4998200;28;20113;-32
2023/05/22 05:45:00;;;;;;;5.05;4.75;;;;;;;;;;4980620;28;20026;-31
2023/05/22 05:47:28;;;;;;;7.30;5.57;;;;;;;;;;4998064;28;20401;-32
2023/05/22 05:49:54;;;;;;;5.20;4.90;;;;;;;;;;4997886;28;20472;-35
2023/05/22 05:52:20;;;;;;;10.57;5.72;;;;;;;;;;4997984;28;20038;-33
2023/05/22 05:54:47;;;;;;;6.25;5.10;;;;;;;;;;4997932;28;20102;-31
2023/05/22 05:57:13;;;;;;;6.00;5.60;;;;;;;;;;4998318;28;20022;-31
2023/05/22 05:59:39;;;;;;;6.38;5.97;;;;;;;;;;4997586;28;20023;-31
2023/05/22 06:02:06;;;;;;;6.43;5.82;;;;;;;;;;5401320;23;20050;-22
2023/05/22 06:04:32;;;;;;;6.57;5.97;;;;;;;;;;4996923;28;20034;-22
2023/05/22 06:07:00;;;;;;;11.77;6.65;;;;;;;;;;4997215;28;20022;-23
2023/05/22 06:09:26;;;;;;;6.80;5.93;;;;;;;;;;4998267;28;20476;-23
2023/05/22 06:11:52;;;;;;;5.82;5.40;;;;;;;;;;4997365;28;20018;-25
2023/05/22 06:14:18;;;;;;;7.18;6.55;;;;;;;;;;4997283;28;20371;-23
2023/05/22 06:16:45;;;;;;;6.53;6.07;;;;;;;;;;4997513;28;20037;-24
2023/05/22 06:19:11;;;;;;;6.13;5.55;;;;;;;;;;4997320;28;20049;-24
2023/05/22 06:21:38;;;;;;;6.88;5.30;;;;;;;;;;4980966;28;20030;-24
2023/05/22 06:24:04;;;;;;;5.85;5.43;;;;;;;;;;4996928;28;20035;-25
2023/05/22 06:26:30;;;;;;;8.32;5.38;;;;;;;;;;4997369;28;20022;-26
2023/05/22 06:28:56;;;;;;;5.70;5.30;;;;;;;;;;4997126;28;20044;-23
2023/05/22 06:31:23;;;;;;;5.80;5.30;;;;;;;;;;4997435;28;20105;-25
2023/05/22 06:33:50;;;;;;;5.72;5.20;;;;;;;;;;4997312;28;20026;-32
2023/05/22 06:36:17;;;;;;;5.90;5.50;;;;;;;;;;4997150;28;20018;-24
2023/05/22 06:38:44;;;;;;;6.53;6.03;;;;;;;;;;4997427;28;20045;-25
2023/05/22 06:41:11;;;;;;;6.28;5.57;;;;;;;;;;4996997;28;20096;-24
2023/05/22 06:43:37;;;;;;;5.80;5.30;;;;;;;;;;4996984;28;20022;-24
2023/05/22 06:46:04;;;;;;;5.50;5.13;;;;;;;;;;4996688;28;20413;-24
2023/05/22 06:48:33;;;;;;;5.75;5.43;;;;;;;;;;4996855;28;20460;-23
2023/05/22 06:50:59;;;;;;;6.78;5.53;;;;;;;;;;4996107;28;20084;-26
2023/05/22 06:53:25;;;;;;;6.68;5.57;;;;;;;;;;4996707;28;20033;-24
2023/05/22 06:55:52;;;;;;;5.28;4.93;;;;;;;;;;4996899;28;20023;-24
2023/05/22 06:58:18;;;;;;;5.93;5.32;;;;;;;;;;4996543;28;20041;-24
2023/05/22 07:00:44;;;;;;;7.10;5.65;;;;;;;;;;4996599;28;20033;-24
2023/05/22 07:03:10;;;;;;;5.32;4.90;;;;;;;;;;4996338;28;20166;-24
2023/05/22 07:05:36;;;;;;;6.63;6.05;;;;;;;;;;4996401;28;20128;-23
2023/05/22 07:08:03;;;;;;;4.95;4.57;;;;;;;;;;4996579;28;20022;-24
2023/05/22 07:10:29;;;;;;;5.35;5.03;;;;;;;;;;4979183;28;20030;-24
2023/05/22 07:12:55;;;;;;;5.93;5.35;;;;;;;;;;4996333;28;20029;-24
2023/05/22 07:15:21;;;;;;;6.10;5.70;;;;;;;;;;4979173;28;20030;-24
2023/05/22 07:17:48;;;;;;;5.43;5.13;;;;;;;;;;4996464;28;20030;-24
2023/05/22 07:20:15;;;;;;;11.85;5.45;;;;;;;;;;4996426;28;20064;-24
2023/05/22 07:22:41;;;;;;;6.38;5.93;;;;;;;;;;4996175;28;20037;-25
2023/05/22 07:25:07;;;;;;;5.88;4.97;;;;;;;;;;4995797;28;20066;-24
2023/05/22 07:27:33;;;;;;;5.72;5.32;;;;;;;;;;4979192;28;20080;-24
2023/05/22 07:30:00;;;;;;;8.57;5.95;;;;;;;;;;4978701;28;20029;-23
2023/05/22 07:32:26;;;;;;;8.07;5.85;;;;;;;;;;4995927;28;20045;-24
2023/05/22 07:34:52;;;;;;;8.23;6.10;;;;;;;;;;4978732;28;20037;-24
2023/05/22 07:37:18;;;;;;;6.35;5.50;;;;;;;;;;4996166;28;20141;-24
2023/05/22 07:39:45;;;;;;;12.20;6.65;;;;;;;;;;4996117;28;20468;-24
2023/05/22 07:42:13;;;;;;;12.23;6.45;;;;;;;;;;4995797;28;20030;-25
2023/05/22 07:44:40;;;;;;;9.82;6.10;;;;;;;;;;4996294;28;20377;-23
2023/05/22 07:47:06;;;;;;;6.82;6.18;;;;;;;;;;4996291;28;20026;-25
2023/05/22 07:49:32;;;;;;;6.47;5.82;;;;;;;;;;4995607;28;20097;-24
2023/05/22 07:51:58;;;;;;;11.38;6.57;;;;;;;;;;4978401;28;20113;-24
2023/05/22 07:54:25;;;;;;;7.63;6.25;;;;;;;;;;4995443;28;20026;-25
2023/05/22 07:56:51;;;;;;;8.90;6.15;;;;;;;;;;4995361;28;20034;-24
2023/05/22 07:59:20;;;;;;;7.82;6.05;;;;;;;;;;4978653;28;20037;-24
2023/05/22 08:01:46;;;;;;;10.15;6.57;;;;;;;;;;4995073;28;20054;-24
2023/05/22 08:04:12;;;;;;;10.63;6.22;;;;;;;;;;4978067;28;20436;-24
2023/05/22 08:06:38;;;;;;;14.63;8.90;;;;;;;;;;4995148;28;20022;-24
2023/05/22 08:09:05;;;;;;;7.15;5.82;;;;;;;;;;4995185;28;20037;-23
2023/05/22 08:11:31;;;;;;;7.85;7.18;;;;;;;;;;4994936;28;20092;-24
2023/05/22 08:13:57;;;;;;;6.80;5.35;;;;;;;;;;4994898;28;20026;-22
2023/05/22 08:16:23;;;;;;;7.05;6.45;;;;;;;;;;4977607;28;20037;-24
2023/05/22 08:18:49;;;;;;;6.85;6.15;;;;;;;;;;4995284;28;20033;-24
2023/05/22 08:21:16;;;;;;;9.55;5.70;;;;;;;;;;4995326;28;20338;-24
2023/05/22 08:23:42;;;;;;;5.65;5.22;;;;;;;;;;4995093;28;20422;-24
2023/05/22 08:26:08;;;;;;;6.03;5.45;;;;;;;;;;4994996;28;20369;-23
2023/05/22 08:28:34;;;;;;;6.22;5.63;;;;;;;;;;4995273;28;20436;-24
2023/05/22 08:31:01;;;;;;;16.63;5.95;;;;;;;;;;4994928;28;20026;-24
2023/05/22 08:33:27;;;;;;;5.85;5.43;;;;;;;;;;4977710;28;20030;-23
2023/05/22 08:35:53;;;;;;;10.23;7.28;;;;;;;;;;4977755;28;20026;-25
2023/05/22 08:38:19;;;;;;;13.57;5.72;;;;;;;;;;4995172;28;20041;-24
2023/05/22 08:40:48;;;;;;;7.30;6.43;;;;;;;;;;4977868;28;20026;-24
2023/05/22 08:43:15;;;;;;;6.75;6.10;;;;;;;;;;4994849;28;20092;-23
2023/05/22 08:45:42;;;;;;;10.52;8.07;;;;;;;;;;4994883;28;20031;-24
2023/05/22 08:48:11;;;;;;;11.20;7.28;;;;;;;;;;4994908;28;20458;-23
2023/05/22 08:50:40;;;;;;;9.75;6.80;;;;;;;;;;4994976;28;20034;-25
2023/05/22 08:53:07;;;;;;;15.45;7.00;;;;;;;;;;4978266;28;20081;-23
2023/05/22 08:55:34;;;;;;;10.52;7.80;;;;;;;;;;4994583;28;20026;-24
2023/05/22 08:58:00;;;;;;;21.65;7.45;;;;;;;;;;4994848;28;20019;-24
2023/05/22 09:00:26;;;;;;;10.13;7.28;;;;;;;;;;4995094;28;20022;-22
2023/05/22 09:02:54;;;;;;;8.93;7.82;;;;;;;;;;4994364;28;20043;-24
2023/05/22 09:05:25;;;;;;;8.88;5.68;;;;;;;;;;4994499;28;20027;-23
2023/05/22 09:07:52;;;;;;;10.57;6.85;;;;;;;;;;4994539;28;20026;-23
2023/05/22 09:10:18;;;;;;;7.22;5.85;;;;;;;;;;4995122;28;20033;-23
2023/05/22 09:13:02;;;;;;;10.43;6.90;;;;;;;;;;4994450;28;20377;-23
2023/05/22 09:15:32;;;;;;;5.88;5.43;;;;;;;;;;4998207;28;20027;-24
2023/05/22 09:17:58;;;;;;;6.35;5.85;;;;;;;;;;4998614;28;20031;-24
2023/05/22 09:20:24;;;;;;;7.93;6.03;;;;;;;;;;4980973;28;20026;-23
2023/05/22 09:22:50;;;;;;;7.35;6.22;;;;;;;;;;4998329;28;20089;-24
2023/05/22 09:25:20;;;;;;;8.70;6.82;;;;;;;;;;4998755;28;20030;-22
2023/05/22 09:27:47;;;;;;;7.93;7.00;;;;;;;;;;4998234;28;20056;-24
2023/05/22 09:30:16;;;;;;;9.25;6.93;;;;;;;;;;4998207;28;20468;-24
2023/05/22 09:32:43;;;;;;;16.70;7.93;;;;;;;;;;4998586;28;20349;-24
2023/05/22 09:35:09;;;;;;;6.80;6.22;;;;;;;;;;4998194;28;20034;-24
2023/05/22 09:37:36;;;;;;;9.32;5.93;;;;;;;;;;4998554;28;20045;-23
2023/05/22 09:40:06;;;;;;;10.45;6.40;;;;;;;;;;4997870;28;20105;-24
2023/05/22 09:42:33;;;;;;;16.85;7.82;;;;;;;;;;4998224;28;20033;-22
2023/05/22 09:45:06;;;;;;;10.20;7.90;;;;;;;;;;4998137;28;20434;-23
2023/05/22 09:47:35;;;;;;;15.00;7.18;;;;;;;;;;4997914;28;20018;-24
2023/05/22 09:50:07;;;;;;;10.55;7.50;;;;;;;;;;4997863;28;20026;-24
2023/05/22 09:52:35;;;;;;;16.00;8.18;;;;;;;;;;4997847;28;20027;-26
2023/05/22 09:55:03;;;;;;;7.75;6.55;;;;;;;;;;4998024;28;20499;-24
2023/05/22 09:57:31;;;;;;;6.78;6.22;;;;;;;;;;4997725;28;20038;-23
2023/05/22 09:59:59;;;;;;;10.85;7.10;;;;;;;;;;4997643;28;20057;-24
2023/05/22 10:02:26;;;;;;;7.05;6.40;;;;;;;;;;4997366;28;20134;-24
2023/05/22 10:04:53;;;;;;;9.68;7.30;;;;;;;;;;4997759;28;20041;-24
2023/05/22 10:07:21;;;;;;;11.55;7.95;;;;;;;;;;4997536;28;20026;-23
2023/05/22 10:09:56;;;;;;;21.25;10.75;;;;;;;;;;4997810;28;20101;-24
2023/05/22 10:12:23;;;;;;;19.50;9.75;;;;;;;;;;4997610;28;20050;-24
2023/05/22 10:14:49;;;;;;;21.58;10.05;;;;;;;;;;4997460;28;20042;-22
2023/05/22 10:17:16;;;;;;;11.65;10.13;;;;;;;;;;4997414;28;20413;-23
2023/05/22 10:19:42;;;;;;;12.60;8.75;;;;;;;;;;4997249;28;20026;-22
2023/05/22 10:22:09;;;;;;;19.10;8.30;;;;;;;;;;4997520;28;20413;-23
2023/05/22 10:24:36;;;;;;;12.38;7.25;;;;;;;;;;4980049;28;20113;-24
2023/05/22 10:27:03;;;;;;;9.85;7.47;;;;;;;;;;4997215;28;20408;-23
2023/05/22 10:29:40;;;;;;;19.50;8.10;;;;;;;;;;4997460;28;20106;-24
2023/05/22 10:32:12;;;;;;;15.95;8.43;;;;;;;;;;4997307;28;20053;-23
2023/05/22 10:34:41;;;;;;;9.70;7.22;;;;;;;;;;4997229;28;20034;-24
2023/05/22 10:37:17;;;;;;;16.02;8.40;;;;;;;;;;4980057;28;20034;-24
2023/05/22 10:39:52;;;;;;;15.45;8.63;;;;;;;;;;4997117;28;20041;-24
2023/05/22 10:42:18;;;;;;;14.80;7.45;;;;;;;;;;4997420;28;20109;-22
2023/05/22 10:44:46;;;;;;;7.25;5.95;;;;;;;;;;4979856;28;20038;-24
2023/05/22 10:47:14;;;;;;;12.23;7.00;;;;;;;;;;4996966;28;20026;-23
2023/05/22 10:49:44;;;;;;;14.98;7.88;;;;;;;;;;4996820;28;20033;-23
2023/05/22 10:52:13;;;;;;;13.37;7.53;;;;;;;;;;4979477;28;20413;-24
2023/05/22 10:54:41;;;;;;;9.18;7.55;;;;;;;;;;4996976;28;20261;-23
2023/05/22 10:57:15;;;;;;;7.45;6.40;;;;;;;;;;4996674;28;20057;-23
2023/05/22 10:59:41;;;;;;;11.63;7.80;;;;;;;;;;4996976;28;20331;-24
2023/05/22 11:02:18;;;;;;;15.05;9.38;;;;;;;;;;4996410;28;20030;-24
2023/05/22 11:04:44;;;;;;;10.52;9.45;;;;;;;;;;4996792;28;20030;-23
2023/05/22 11:07:12;;;;;;;13.13;10.50;;;;;;;;;;4996481;28;20067;-24
2023/05/22 11:09:46;;;;;;;8.93;8.15;;;;;;;;;;4979094;28;20026;-24
2023/05/22 11:12:21;;;;;;;11.50;7.75;;;;;;;;;;4978931;28;20033;-24
2023/05/22 11:14:57;;;;;;;9.13;7.80;;;;;;;;;;4996158;28;20030;-23
2023/05/22 11:17:24;;;;;;;13.13;9.02;;;;;;;;;;4996336;28;20041;-24
2023/05/22 11:20:11;;;;;;;11.80;7.95;;;;;;;;;;4996226;28;20038;-24
2023/05/22 11:22:39;;;;;;;11.50;7.70;;;;;;;;;;4996073;28;20065;-23
2023/05/22 11:25:15;;;;;;;9.00;7.55;;;;;;;;;;4996347;28;20054;-24
2023/05/22 11:27:41;;;;;;;9.98;7.88;;;;;;;;;;4979886;28;20465;-24
2023/05/22 11:30:08;;;;;;;13.35;7.68;;;;;;;;;;4996133;28;20026;-23
2023/05/22 11:32:35;;;;;;;9.25;8.35;;;;;;;;;;4995897;28;20097;-24
2023/05/22 11:35:02;;;;;;;11.32;8.02;;;;;;;;;;4995980;28;20042;-24
2023/05/22 11:37:29;;;;;;;12.57;8.23;;;;;;;;;;4995350;28;20069;-24
2023/05/22 11:39:56;;;;;;;11.70;9.15;;;;;;;;;;4996246;28;20032;-23
2023/05/22 11:42:22;;;;;;;9.73;8.82;;;;;;;;;;4996030;28;20037;-25
2023/05/22 11:44:48;;;;;;;10.45;8.18;;;;;;;;;;4996023;28;20052;-24
2023/05/22 11:47:15;;;;;;;14.85;9.20;;;;;;;;;;4995908;28;20038;-24
2023/05/22 11:49:41;;;;;;;9.75;7.85;;;;;;;;;;4996223;28;20354;-23
2023/05/22 11:52:08;;;;;;;13.95;9.25;;;;;;;;;;4995893;28;20022;-24
2023/05/22 11:54:35;;;;;;;10.32;7.78;;;;;;;;;;4995812;28;20026;-24
2023/05/22 11:57:03;;;;;;;15.57;7.93;;;;;;;;;;4995825;28;20042;-24
2023/05/22 11:59:29;;;;;;;15.63;10.40;;;;;;;;;;4995636;28;20036;-24
2023/05/22 12:01:55;;;;;;;10.45;9.55;;;;;;;;;;4995487;28;20121;-23
2023/05/22 12:04:22;;;;;;;11.13;9.93;;;;;;;;;;4995259;28;20081;-22
2023/05/22 12:06:48;;;;;;;13.05;9.32;;;;;;;;;;4995412;28;20022;-24
2023/05/22 12:09:15;;;;;;;11.30;9.75;;;;;;;;;;4978291;28;20030;-22
2023/05/22 12:11:44;;;;;;;13.10;9.85;;;;;;;;;;4995346;28;20100;-25
2023/05/22 12:14:11;;;;;;;20.60;10.40;;;;;;;;;;4995265;28;20134;-24
2023/05/22 12:16:37;;;;;;;24.35;10.85;;;;;;;;;;4995073;28;20026;-23
2023/05/22 12:19:05;;;;;;;36.00;12.38;;;;;;;;;;4995244;28;20077;-24
2023/05/22 12:21:31;;;;;;;15.93;9.18;;;;;;;;;;4995139;28;20038;-23
2023/05/22 12:23:57;;;;;;;20.33;9.32;;;;;;;;;;4995191;28;20022;-23
2023/05/22 12:26:24;;;;;;;29.52;10.88;;;;;;;;;;4995331;28;20034;-23
2023/05/22 12:28:54;;;;;;;31.67;11.93;;;;;;;;;;4995610;28;20023;-22
2023/05/22 12:31:23;;;;;;;15.85;8.88;;;;;;;;;;4994935;28;20027;-23
2023/05/22 12:33:53;;;;;;;11.68;10.40;;;;;;;;;;4977914;28;20022;-24
2023/05/22 12:36:20;;;;;;;18.63;9.82;;;;;;;;;;4995188;28;20022;-24
2023/05/22 12:38:46;;;;;;;17.60;9.55;;;;;;;;;;4994774;28;20026;-24
2023/05/22 12:41:12;;;;;;;14.55;11.15;;;;;;;;;;4995034;28;20105;-24
2023/05/22 12:43:38;;;;;;;12.95;9.60;;;;;;;;;;4994989;28;20488;-24
2023/05/22 12:46:05;;;;;;;25.63;10.80;;;;;;;;;;4994839;28;20096;-25
2023/05/22 12:48:31;;;;;;;25.65;11.20;;;;;;;;;;4995807;28;20415;-24
2023/05/22 12:50:57;;;;;;;20.80;12.32;;;;;;;;;;4999140;28;20356;-23
2023/05/22 12:53:23;;;;;;;13.50;10.73;;;;;;;;;;4981691;28;20105;-23
2023/05/22 12:55:49;;;;;;;15.65;9.98;;;;;;;;;;4982242;28;20033;-25
2023/05/22 12:58:15;;;;;;;12.13;10.85;;;;;;;;;;4999426;28;20041;-24
2023/05/22 13:00:41;;;;;;;19.27;13.50;;;;;;;;;;4999617;28;20030;-24
2023/05/22 13:03:08;;;;;;;12.30;10.88;;;;;;;;;;4998597;28;20050;-24
2023/05/22 13:05:34;;;;;;;10.93;10.02;;;;;;;;;;4982043;28;20057;-25
2023/05/22 13:08:00;;;;;;;12.55;11.07;;;;;;;;;;4998764;28;20101;-24
2023/05/22 13:10:26;;;;;;;12.82;11.63;;;;;;;;;;4998871;28;20477;-24
2023/05/22 13:12:52;;;;;;;15.70;10.68;;;;;;;;;;4981293;28;20049;-23
2023/05/22 13:15:18;;;;;;;13.63;10.40;;;;;;;;;;4998856;28;20023;-24
2023/05/22 13:17:45;;;;;;;14.93;11.98;;;;;;;;;;4998754;28;20022;-23
2023/05/22 13:20:11;;;;;;;16.58;12.40;;;;;;;;;;4998839;28;20042;-25
2023/05/22 13:22:37;;;;;;;12.65;10.95;;;;;;;;;;4998526;28;20030;-24
2023/05/22 13:25:03;;;;;;;18.75;12.70;;;;;;;;;;4998437;28;20408;-23
2023/05/22 13:27:30;;;;;;;18.33;13.68;;;;;;;;;;4998687;28;20057;-23
2023/05/22 13:29:56;;;;;;;20.92;13.52;;;;;;;;;;4998530;28;20023;-24
2023/05/22 13:32:25;;;;;;;21.30;12.60;;;;;;;;;;4998329;28;20033;-24
2023/05/22 13:34:51;;;;;;;22.23;13.90;;;;;;;;;;4999123;28;20030;-24
2023/05/22 13:37:17;;;;;;;16.92;12.35;;;;;;;;;;4998371;28;20089;-24
2023/05/22 13:39:43;;;;;;;13.85;12.32;;;;;;;;;;4998535;28;20091;-22
2023/05/22 13:42:10;;;;;;;13.10;11.90;;;;;;;;;;4998224;28;20026;-24
2023/05/22 13:44:36;;;;;;;17.67;11.95;;;;;;;;;;4998116;28;20049;-24
2023/05/22 13:47:02;;;;;;;20.30;13.25;;;;;;;;;;4998047;28;20045;-24
2023/05/22 13:49:28;;;;;;;18.67;12.10;;;;;;;;;;4998225;28;20030;-24
2023/05/22 13:51:54;;;;;;;24.23;13.02;;;;;;;;;;4997895;28;20152;-24
2023/05/22 13:54:20;;;;;;;14.48;11.60;;;;;;;;;;4998206;28;20018;-23
2023/05/22 13:56:46;;;;;;;15.00;11.70;;;;;;;;;;4997880;28;20030;-25
2023/05/22 13:59:13;;;;;;;18.77;12.45;;;;;;;;;;4997442;28;20030;-24
2023/05/22 14:01:39;;;;;;;14.55;11.57;;;;;;;;;;4998098;28;20353;-22
2023/05/22 14:04:05;;;;;;;13.30;11.90;;;;;;;;;;4997666;28;20444;-23
2023/05/22 14:06:31;;;;;;;13.68;12.25;;;;;;;;;;4997884;28;20412;-24
2023/05/22 14:08:57;;;;;;;14.25;11.43;;;;;;;;;;4997548;28;20097;-24
2023/05/22 14:11:23;;;;;;;21.73;12.68;;;;;;;;;;4997830;28;20458;-24
2023/05/22 14:13:50;;;;;;;16.15;11.93;;;;;;;;;;4997525;28;20080;-24
2023/05/22 14:16:17;;;;;;;13.18;11.65;;;;;;;;;;4997794;28;20161;-24
2023/05/22 14:18:43;;;;;;;21.05;12.32;;;;;;;;;;4980281;28;20045;-23
2023/05/22 14:21:09;;;;;;;16.75;11.48;;;;;;;;;;4997539;28;20026;-24
2023/05/22 14:23:35;;;;;;;18.75;12.35;;;;;;;;;;4997386;28;20031;-24
2023/05/22 14:26:01;;;;;;;17.08;10.75;;;;;;;;;;4997333;28;20062;-24
2023/05/22 14:28:27;;;;;;;16.40;12.13;;;;;;;;;;4997348;28;20026;-23
2023/05/22 14:30:55;;;;;;;16.73;11.93;;;;;;;;;;4997487;28;20418;-24
2023/05/22 14:33:21;;;;;;;22.55;12.13;;;;;;;;;;4997203;28;20050;-24
2023/05/22 14:35:49;;;;;;;16.83;12.18;;;;;;;;;;4997234;28;20101;-24